createdAt,value
2019-03-05T00:04:56.177Z,8.00
2019-03-05T00:10:00.455Z,7.80
2019-03-05T00:15:05.292Z,7.70
2019-03-05T00:20:11.224Z,7.70
2019-03-05T00:25:17.460Z,7.90
2019-03-05T00:30:31.730Z,7.60
2019-03-05T00:36:17.138Z,7.80
2019-03-05T00:41:48.701Z,7.70
2019-03-05T00:47:40.953Z,7.70
2019-03-05T00:53:16.246Z,7.80
2019-03-05T00:58:47.681Z,7.50
2019-03-05T01:04:34.896Z,7.40
2019-03-05T01:09:39.065Z,7.20
2019-03-05T01:14:43.705Z,7.00
2019-03-05T01:19:47.890Z,7.00
2019-03-05T01:24:52.156Z,7.20
2019-03-05T01:29:56.351Z,7.10
2019-03-05T01:35:18.193Z,7.30
2019-03-05T01:40:47.499Z,7.20
2019-03-05T01:45:51.732Z,6.90
2019-03-05T01:50:55.976Z,7.00
2019-03-05T01:56:00.164Z,7.00
2019-03-05T02:01:05.661Z,7.10
2019-03-05T02:06:09.857Z,6.90
2019-03-05T02:11:15.561Z,6.90
2019-03-05T02:16:19.829Z,7.00
2019-03-05T04:24:35.138Z,7.60
2019-03-05T04:29:39.383Z,7.70
2019-03-05T04:34:43.584Z,7.60
2019-03-05T04:39:47.791Z,7.70
2019-03-05T04:44:57.742Z,7.70
2019-03-05T04:50:09.520Z,7.70
2019-03-05T04:55:13.699Z,7.80
2019-03-05T05:00:18.267Z,7.60
2019-03-05T05:05:22.428Z,7.50
2019-03-05T05:10:26.628Z,7.60
2019-03-05T05:15:32.316Z,7.50
2019-03-05T05:20:36.573Z,7.50
2019-03-05T05:25:40.772Z,7.60
2019-03-05T05:30:44.966Z,7.70
2019-03-05T05:35:49.170Z,7.70
2019-03-05T05:40:53.343Z,7.60
2019-03-05T05:45:57.515Z,7.40
2019-03-05T05:51:01.673Z,7.20
2019-03-05T05:56:05.845Z,7.20
2019-03-05T06:01:12.433Z,7.00
2019-03-05T06:06:16.588Z,7.10
2019-03-05T06:11:20.811Z,7.00
2019-03-05T06:16:24.970Z,7.10
2019-03-05T06:21:29.146Z,7.30
2019-03-05T06:26:33.311Z,7.10
2019-03-05T06:31:37.479Z,7.00
2019-03-05T06:36:57.872Z,7.00
2019-03-05T06:42:02.069Z,7.10
2019-03-05T06:47:06.221Z,6.90
2019-03-05T06:52:11.802Z,7.10
2019-03-05T06:57:16.380Z,7.10
2019-03-05T07:02:20.715Z,7.30
2019-03-05T07:07:25.734Z,7.30
2019-03-05T07:13:09.917Z,7.40
2019-03-05T07:18:19.707Z,7.30
2019-03-05T07:23:55.569Z,7.60
2019-03-05T07:28:59.756Z,7.60
2019-03-05T07:34:05.913Z,8.30
2019-03-05T07:39:14.979Z,8.50
2019-03-05T07:44:19.166Z,8.50
2019-03-05T07:49:23.363Z,8.00
2019-03-05T07:54:27.576Z,9.00
2019-03-05T07:59:31.790Z,9.00
2019-03-05T08:04:35.992Z,11.70
2019-03-05T08:09:40.190Z,11.60
2019-03-05T08:14:56.930Z,10.60
2019-03-05T08:20:01.202Z,9.70
2019-03-05T08:25:06.800Z,9.40
2019-03-05T08:30:14.754Z,8.80
2019-03-05T08:35:19.161Z,8.60
2019-03-05T08:40:23.801Z,8.70
2019-03-05T08:45:29.566Z,10.00
2019-03-05T08:50:34.175Z,10.90
2019-03-05T08:55:38.334Z,10.10
2019-03-05T09:00:42.539Z,9.30
2019-03-05T09:05:47.114Z,9.00
2019-03-05T09:10:52.993Z,8.90
2019-03-05T09:15:57.268Z,9.00
2019-03-05T09:21:01.447Z,9.00
2019-03-05T09:26:05.726Z,9.20
2019-03-05T09:31:09.919Z,10.50
2019-03-05T09:36:14.103Z,10.50
2019-03-05T09:41:18.302Z,9.90
2019-03-05T09:46:22.499Z,9.80
2019-03-05T09:51:26.679Z,10.00
2019-03-05T09:56:30.946Z,9.60
2019-03-05T10:01:35.335Z,9.30
2019-03-05T10:06:39.519Z,8.90
2019-03-05T10:11:43.693Z,9.00
2019-03-05T10:16:47.995Z,9.00
2019-03-05T10:21:52.175Z,8.90
2019-03-05T10:26:56.519Z,9.20
2019-03-05T10:32:00.707Z,9.30
2019-03-05T10:37:14.488Z,9.40
2019-03-05T10:42:11.399Z,9.50
2019-03-05T10:47:15.580Z,9.60
2019-03-05T10:52:19.797Z,9.70
2019-03-05T10:57:24.076Z,9.70
2019-03-05T11:02:28.369Z,9.60
2019-03-05T11:07:33.642Z,9.20
2019-03-05T11:12:39.043Z,9.10
2019-03-05T11:17:46.073Z,9.00
2019-03-05T11:22:50.611Z,8.80
2019-03-05T11:32:58.532Z,15.80
2019-03-05T11:38:02.782Z,16.00
2019-03-05T11:43:11.918Z,14.80
2019-03-05T11:48:16.838Z,13.00
2019-03-05T11:53:21.525Z,10.60
2019-03-05T11:58:25.795Z,9.60
2019-03-05T12:03:30.072Z,9.40
2019-03-05T12:08:34.325Z,9.60
2019-03-05T12:15:50.978Z,11.30
2019-03-05T12:20:55.156Z,13.20
2019-03-05T12:31:03.032Z,11.70
2019-03-05T12:36:07.220Z,10.90
2019-03-05T12:41:11.416Z,9.90
2019-03-05T12:46:15.631Z,9.70
2019-03-05T12:51:19.967Z,10.10
2019-03-05T12:56:24.489Z,10.50
2019-03-05T13:01:28.912Z,12.80
2019-03-05T13:06:33.214Z,13.80
2019-03-05T13:11:37.489Z,12.90
2019-03-05T13:16:41.752Z,13.20
2019-03-05T13:21:48.477Z,13.60
2019-03-05T13:26:51.911Z,13.80
2019-03-05T13:31:56.125Z,13.10
2019-03-05T13:37:01.014Z,13.70
2019-03-05T13:42:07.768Z,15.70
2019-03-05T13:47:13.455Z,16.00
2019-03-05T13:52:43.344Z,15.10
2019-03-05T13:58:37.282Z,15.30
2019-03-05T14:03:49.687Z,14.10
2019-03-05T14:09:14.211Z,13.20
2019-03-05T14:14:26.668Z,11.80
2019-03-05T14:19:30.923Z,11.10
2019-03-05T14:29:38.838Z,11.60
2019-03-05T14:34:49.658Z,13.40
2019-03-05T14:39:53.858Z,14.30
2019-03-05T14:44:58.131Z,14.80
2019-03-05T14:50:02.412Z,13.80
2019-03-05T14:55:07.751Z,12.50
2019-03-05T15:00:14.845Z,12.70
2019-03-05T15:05:19.422Z,14.90
2019-03-05T15:10:23.685Z,13.80
2019-03-05T15:15:29.843Z,12.80
2019-03-05T15:20:34.162Z,12.30
2019-03-05T15:25:38.415Z,11.80
2019-03-05T15:30:42.749Z,11.90
2019-03-05T15:35:47.105Z,13.00
2019-03-05T15:40:51.425Z,12.70
2019-03-05T15:45:55.762Z,11.90
2019-03-05T15:50:59.973Z,11.50
2019-03-05T15:56:04.283Z,11.10
2019-03-05T16:01:09.852Z,11.50
2019-03-05T16:06:14.631Z,11.70
2019-03-05T16:11:18.909Z,11.60
2019-03-05T16:16:23.123Z,11.50
2019-03-05T16:21:27.378Z,11.50
2019-03-05T19:54:24.730Z,7.70
2019-03-05T19:59:30.071Z,7.80
2019-03-05T20:04:34.765Z,7.80
2019-03-05T20:09:38.988Z,7.80
2019-03-05T20:14:43.685Z,7.90
2019-03-05T20:19:47.964Z,7.60
2019-03-05T20:24:52.458Z,7.50
2019-03-05T20:29:56.791Z,7.60
2019-03-05T20:35:01.343Z,7.40
2019-03-05T20:40:08.022Z,7.10
2019-03-05T20:45:16.352Z,7.10
2019-03-05T20:50:20.790Z,6.90
2019-03-05T20:55:25.163Z,7.10
2019-03-05T21:00:33.174Z,7.00
2019-03-05T21:05:39.549Z,7.00
2019-03-05T21:10:43.773Z,7.10
2019-03-05T21:15:48.129Z,7.00
2019-03-05T21:20:52.326Z,6.80
2019-03-05T21:25:56.624Z,6.90
2019-03-05T21:31:00.815Z,6.70
2019-03-05T21:36:05.024Z,6.90
2019-03-05T21:41:09.340Z,6.70
2019-03-05T21:46:16.607Z,6.80
2019-03-05T21:51:20.950Z,7.00
2019-03-05T21:56:25.226Z,6.80
2019-03-05T22:01:29.412Z,6.70
2019-03-05T22:06:33.630Z,6.60
2019-03-05T22:11:38.474Z,6.50
2019-03-05T22:16:42.669Z,6.40
2019-03-05T22:21:46.856Z,6.20
2019-03-05T22:26:51.118Z,6.60
2019-03-05T22:31:55.385Z,6.80
2019-03-05T22:36:59.561Z,6.80
2019-03-05T22:42:03.873Z,7.00
2019-03-05T22:47:08.045Z,7.00
2019-03-05T22:52:12.229Z,6.70
2019-03-05T22:57:16.481Z,6.90
2019-03-05T23:02:21.039Z,7.10
2019-03-05T23:07:25.389Z,6.90
2019-03-05T23:12:29.552Z,7.00
2019-03-05T23:17:33.893Z,6.80
2019-03-05T23:22:38.138Z,6.80
2019-03-05T23:27:42.341Z,6.90
2019-03-05T23:32:48.142Z,6.80
2019-03-05T23:37:52.441Z,6.80
2019-03-05T23:42:56.794Z,6.90
2019-03-05T23:48:01.072Z,6.80
2019-03-05T23:53:05.272Z,6.70
2019-03-05T23:58:09.480Z,6.80
